createdAt,value
2018-11-01T00:02:13.917Z,5.70
2018-11-01T00:04:43.248Z,7.33
2018-11-01T00:07:11.658Z,6.37
2018-11-01T00:09:39.950Z,6.27
2018-11-01T00:12:08.436Z,5.70
2018-11-01T00:14:36.831Z,5.20
2018-11-01T00:17:05.548Z,5.33
2018-11-01T00:19:34.129Z,5.70
2018-11-01T00:22:02.582Z,5.23
2018-11-01T00:24:30.913Z,5.10
2018-11-01T00:27:00.178Z,5.10
2018-11-01T00:29:28.529Z,4.27
2018-11-01T00:31:57.411Z,4.17
2018-11-01T00:34:25.783Z,4.50
2018-11-01T00:36:54.274Z,4.17
2018-11-01T00:39:22.792Z,4.07
2018-11-01T00:41:51.290Z,4.77
2018-11-01T00:44:19.635Z,4.00
2018-11-01T00:46:48.184Z,3.77
2018-11-01T00:49:16.727Z,3.87
2018-11-01T00:51:45.092Z,4.50
2018-11-01T00:54:13.576Z,3.70
2018-11-01T00:56:41.921Z,4.20
2018-11-01T00:59:10.429Z,3.63
2018-11-01T01:01:38.919Z,3.63
2018-11-01T01:04:07.409Z,3.07
2018-11-01T01:06:35.786Z,3.50
2018-11-01T01:09:06.718Z,3.17
2018-11-01T01:11:35.045Z,4.10
2018-11-01T01:14:03.428Z,3.83
2018-11-01T01:16:31.866Z,3.10
2018-11-01T01:19:00.355Z,3.53
2018-11-01T01:21:29.095Z,3.63
2018-11-01T01:23:57.396Z,4.17
2018-11-01T01:26:26.849Z,3.80
2018-11-01T01:28:55.268Z,3.17
2018-11-01T01:31:24.120Z,3.77
2018-11-01T01:33:52.552Z,3.93
2018-11-01T01:36:21.071Z,3.60
2018-11-01T01:38:49.427Z,4.30
2018-11-01T01:41:17.794Z,3.77
2018-11-01T01:43:46.262Z,3.50
2018-11-01T01:46:14.738Z,3.70
2018-11-01T01:48:43.137Z,3.57
2018-11-01T01:51:14.620Z,3.87
2018-11-01T01:53:43.048Z,3.70
2018-11-01T01:56:11.469Z,3.57
2018-11-01T01:58:39.840Z,3.47
2018-11-01T02:01:08.201Z,3.43
2018-11-01T02:03:36.605Z,3.40
2018-11-01T02:06:05.282Z,4.20
2018-11-01T02:08:33.642Z,3.00
2018-11-01T02:11:02.621Z,3.43
2018-11-01T02:13:33.276Z,3.13
2018-11-01T02:16:01.612Z,3.63
2018-11-01T02:18:30.037Z,3.27
2018-11-01T02:20:58.746Z,2.90
2018-11-01T02:23:27.533Z,3.37
2018-11-01T02:25:55.886Z,3.47
2018-11-01T02:28:24.377Z,3.37
2018-11-01T02:30:52.983Z,3.37
2018-11-01T02:33:21.444Z,3.10
2018-11-01T02:35:49.794Z,3.93
2018-11-01T02:38:18.345Z,3.37
2018-11-01T02:40:46.808Z,3.53
2018-11-01T02:43:15.085Z,2.87
2018-11-01T02:45:43.572Z,3.90
2018-11-01T02:48:12.303Z,3.00
2018-11-01T02:50:40.811Z,3.90
2018-11-01T02:53:09.185Z,3.73
2018-11-01T02:55:37.536Z,3.50
2018-11-01T02:58:07.441Z,3.57
2018-11-01T03:00:35.838Z,3.87
2018-11-01T03:03:04.259Z,4.20
2018-11-01T03:05:32.644Z,3.73
2018-11-01T03:08:02.043Z,3.03
2018-11-01T03:10:30.503Z,3.03
2018-11-01T03:12:58.905Z,3.57
2018-11-01T03:15:27.346Z,3.10
2018-11-01T03:17:56.543Z,3.20
2018-11-01T03:20:25.050Z,3.37
2018-11-01T03:22:54.176Z,3.33
2018-11-01T03:25:23.502Z,3.43
2018-11-01T03:27:52.598Z,3.23
2018-11-01T03:30:22.117Z,3.90
2018-11-01T03:32:50.926Z,3.53
2018-11-01T03:35:19.521Z,3.40
2018-11-01T03:37:48.391Z,3.00
2018-11-01T03:40:17.012Z,3.70
2018-11-01T03:42:45.806Z,3.90
2018-11-01T03:45:14.339Z,3.20
2018-11-01T03:47:43.232Z,2.83
2018-11-01T03:50:12.422Z,3.00
2018-11-01T03:52:40.930Z,3.10
2018-11-01T03:55:10.770Z,3.13
2018-11-01T03:57:39.909Z,3.20
2018-11-01T04:00:11.619Z,3.30
2018-11-01T04:02:40.260Z,3.30
2018-11-01T04:05:08.692Z,3.23
2018-11-01T04:07:37.377Z,3.77
2018-11-01T04:10:06.890Z,3.60
2018-11-01T04:12:35.318Z,3.30
2018-11-01T04:15:03.728Z,2.93
2018-11-01T04:17:32.166Z,2.70
2018-11-01T04:20:00.695Z,3.00
2018-11-01T04:22:29.170Z,2.97
2018-11-01T04:24:57.501Z,3.83
2018-11-01T04:27:25.940Z,2.90
2018-11-01T04:29:54.274Z,3.10
2018-11-01T04:32:22.793Z,3.93
2018-11-01T04:34:51.474Z,3.33
2018-11-01T04:37:19.995Z,3.70
2018-11-01T04:39:48.544Z,2.97
2018-11-01T04:42:17.021Z,3.17
2018-11-01T04:44:45.556Z,2.97
2018-11-01T04:47:14.019Z,3.60
2018-11-01T04:49:42.386Z,3.67
2018-11-01T04:52:10.755Z,3.77
2018-11-01T04:54:39.224Z,3.30
2018-11-01T04:57:07.612Z,3.50
2018-11-01T04:59:36.813Z,3.50
2018-11-01T05:02:05.347Z,3.10
2018-11-01T05:04:33.779Z,3.27
2018-11-01T05:07:03.011Z,3.30
2018-11-01T05:09:31.452Z,3.40
2018-11-01T05:11:59.877Z,3.30
2018-11-01T05:14:28.414Z,3.57
2018-11-01T05:16:57.017Z,3.93
2018-11-01T05:19:25.493Z,4.10
2018-11-01T05:21:54.110Z,4.40
2018-11-01T05:24:22.509Z,3.90
2018-11-01T05:26:50.991Z,4.20
2018-11-01T05:29:19.628Z,4.40
2018-11-01T05:31:48.975Z,4.83
2018-11-01T05:34:17.541Z,4.33
2018-11-01T05:36:45.852Z,5.00
2018-11-01T05:39:14.395Z,5.00
2018-11-01T05:41:42.916Z,4.60
2018-11-01T05:44:11.358Z,5.23
2018-11-01T05:46:39.872Z,4.70
2018-11-01T05:49:08.243Z,5.03
2018-11-01T05:51:36.763Z,5.10
2018-11-01T05:54:05.679Z,5.57
2018-11-01T05:56:34.050Z,5.63
2018-11-01T05:59:02.486Z,5.53
2018-11-01T06:01:32.380Z,6.20
2018-11-01T06:04:01.144Z,6.27
2018-11-01T06:06:29.698Z,5.93
2018-11-01T06:08:59.510Z,5.13
2018-11-01T06:11:28.057Z,5.40
2018-11-01T06:13:56.311Z,4.90
2018-11-01T06:16:24.738Z,4.80
2018-11-01T06:18:53.151Z,4.83
2018-11-01T06:21:21.623Z,5.93
2018-11-01T06:23:50.056Z,4.37
2018-11-01T06:26:18.437Z,4.33
2018-11-01T06:28:46.914Z,4.80
2018-11-01T06:31:15.861Z,5.23
2018-11-01T06:33:44.252Z,5.43
2018-11-01T06:36:15.798Z,5.10
2018-11-01T06:38:44.428Z,5.10
2018-11-01T06:41:12.897Z,4.57
2018-11-01T06:43:41.523Z,5.70
2018-11-01T06:46:10.157Z,6.43
2018-11-01T06:48:39.110Z,7.37
2018-11-01T06:51:08.763Z,6.60
2018-11-01T06:53:37.424Z,6.97
2018-11-01T06:56:05.928Z,6.20
2018-11-01T06:58:34.594Z,7.10
2018-11-01T07:01:03.452Z,6.40
2018-11-01T07:03:31.989Z,7.27
2018-11-01T07:06:01.139Z,6.27
2018-11-01T07:08:29.611Z,6.33
2018-11-01T07:10:58.172Z,7.00
2018-11-01T07:13:26.766Z,5.90
2018-11-01T07:15:55.867Z,6.00
2018-11-01T07:18:25.772Z,4.93
2018-11-01T07:20:55.032Z,5.80
2018-11-01T07:23:23.470Z,5.37
2018-11-01T07:25:51.897Z,5.13
2018-11-01T07:28:20.513Z,5.60
2018-11-01T07:30:49.251Z,5.40
2018-11-01T07:33:17.786Z,5.20
2018-11-01T07:35:46.237Z,5.60
2018-11-01T07:38:14.821Z,6.00
2018-11-01T07:40:43.243Z,4.27
2018-11-01T07:43:11.747Z,5.17
2018-11-01T07:45:42.186Z,5.50
2018-11-01T07:48:11.177Z,5.13
2018-11-01T07:50:39.670Z,5.63
2018-11-01T07:53:08.857Z,5.10
2018-11-01T07:55:37.617Z,6.83
2018-11-01T07:58:06.225Z,5.63
2018-11-01T08:00:34.616Z,6.23
2018-11-01T08:03:03.270Z,6.50
2018-11-01T08:05:31.869Z,7.13
2018-11-01T08:08:00.824Z,6.90
2018-11-01T08:10:29.426Z,5.60
2018-11-01T08:12:58.422Z,5.70
2018-11-01T08:15:26.824Z,5.17
2018-11-01T08:17:55.458Z,6.20
2018-11-01T08:20:24.110Z,5.70
2018-11-01T08:22:52.437Z,5.83
2018-11-01T08:25:20.928Z,5.40
2018-11-01T08:27:49.527Z,4.83
2018-11-01T08:30:19.121Z,5.20
2018-11-01T08:32:47.799Z,4.90
2018-11-01T08:35:16.296Z,6.97
2018-11-01T08:37:45.460Z,4.60
2018-11-01T08:40:14.243Z,4.60
2018-11-01T08:42:42.906Z,5.03
2018-11-01T08:45:12.797Z,4.87
2018-11-01T08:47:41.736Z,5.17
2018-11-01T08:50:11.611Z,5.37
2018-11-01T08:52:40.791Z,6.93
2018-11-01T08:55:10.455Z,6.57
2018-11-01T08:57:41.049Z,8.03
2018-11-01T09:00:10.486Z,9.10
2018-11-01T09:02:39.672Z,14.20
2018-11-01T09:05:09.189Z,14.50
2018-11-01T09:07:38.361Z,11.83
2018-11-01T09:10:09.442Z,10.87
2018-11-01T09:12:38.175Z,9.37
2018-11-01T09:15:07.946Z,10.37
2018-11-01T09:17:36.530Z,9.57
2018-11-01T09:20:06.099Z,12.20
2018-11-01T09:22:34.589Z,14.97
2018-11-01T09:25:03.395Z,13.77
2018-11-01T09:27:31.832Z,15.17
2018-11-01T09:30:00.462Z,16.47
2018-11-01T09:32:29.307Z,14.27
2018-11-01T09:34:57.799Z,9.60
2018-11-01T09:37:27.982Z,10.77
2018-11-01T09:39:56.421Z,5.70
2018-11-01T09:42:24.945Z,6.20
2018-11-01T09:44:53.688Z,6.63
2018-11-01T09:47:22.510Z,6.10
2018-11-01T09:49:50.806Z,6.00
2018-11-01T09:52:20.173Z,5.40
2018-11-01T09:54:48.686Z,6.27
2018-11-01T09:57:17.231Z,6.47
2018-11-01T09:59:45.696Z,7.40
2018-11-01T10:02:14.249Z,9.40
2018-11-01T10:04:43.073Z,7.70
2018-11-01T10:07:11.731Z,7.00
2018-11-01T10:09:40.631Z,10.07
2018-11-01T10:12:09.373Z,10.13
2018-11-01T10:14:37.989Z,9.30
2018-11-01T10:17:06.638Z,9.80
2018-11-01T10:19:35.706Z,8.70
2018-11-01T10:22:04.582Z,9.60
2018-11-01T10:24:32.890Z,8.03
2018-11-01T10:27:01.514Z,8.30
2018-11-01T10:29:30.030Z,8.90
2018-11-01T10:31:58.683Z,8.47
2018-11-01T10:34:27.810Z,9.20
2018-11-01T10:36:56.459Z,10.70
2018-11-01T10:39:25.257Z,9.83
2018-11-01T10:41:54.160Z,8.97
2018-11-01T10:44:23.264Z,10.50
2018-11-01T10:46:52.501Z,9.40
2018-11-01T10:49:20.943Z,8.30
2018-11-01T10:51:49.602Z,7.60
2018-11-01T10:54:18.375Z,6.90
2018-11-01T10:56:47.110Z,6.30
2018-11-01T10:59:16.149Z,4.97
2018-11-01T11:01:48.921Z,5.30
2018-11-01T11:04:17.390Z,5.33
2018-11-01T11:06:45.972Z,5.30
2018-11-01T11:09:15.330Z,5.13
2018-11-01T11:11:44.182Z,5.70
2018-11-01T11:14:12.857Z,5.90
2018-11-01T11:16:41.352Z,6.00
2018-11-01T11:19:10.095Z,5.80
2018-11-01T11:21:38.829Z,5.43
2018-11-01T11:24:07.270Z,6.50
2018-11-01T11:26:35.877Z,5.70
2018-11-01T11:29:04.391Z,7.00
2018-11-01T11:31:33.831Z,6.70
2018-11-01T11:34:02.746Z,6.63
2018-11-01T11:36:32.348Z,6.20
2018-11-01T11:39:02.122Z,5.13
2018-11-01T11:41:30.848Z,5.93
2018-11-01T11:44:00.745Z,6.27
2018-11-01T11:46:29.384Z,5.63
2018-11-01T11:48:57.996Z,5.93
2018-11-01T11:51:26.531Z,6.00
2018-11-01T11:53:54.927Z,5.60
2018-11-01T11:56:23.570Z,6.80
2018-11-01T11:58:52.595Z,5.90
2018-11-01T12:01:21.173Z,6.50
2018-11-01T12:03:50.176Z,6.37
2018-11-01T12:06:18.982Z,7.27
2018-11-01T12:08:47.227Z,7.60
2018-11-01T12:11:15.841Z,7.17
2018-11-01T12:13:44.420Z,7.13
2018-11-01T12:16:12.952Z,8.50
2018-11-01T12:18:41.470Z,8.03
2018-11-01T12:21:10.358Z,7.30
2018-11-01T12:23:38.804Z,7.00
2018-11-01T12:26:07.496Z,6.20
2018-11-01T12:28:36.131Z,5.50
2018-11-01T12:31:04.948Z,7.90
2018-11-01T12:33:34.134Z,7.00
2018-11-01T12:36:03.724Z,7.70
2018-11-01T12:38:33.885Z,6.00
2018-11-01T12:41:02.812Z,6.33
2018-11-01T12:43:31.321Z,7.10
2018-11-01T12:46:00.154Z,6.73
2018-11-01T12:48:28.720Z,7.10
2018-11-01T12:50:57.499Z,7.10
2018-11-01T12:53:26.719Z,9.67
2018-11-01T12:55:55.288Z,7.50
2018-11-01T12:58:23.818Z,7.33
2018-11-01T13:00:53.210Z,7.70
2018-11-01T13:03:21.886Z,7.07
2018-11-01T13:05:50.643Z,7.83
2018-11-01T13:08:19.626Z,8.17
2018-11-01T13:10:48.601Z,8.07
2018-11-01T13:13:17.008Z,7.60
2018-11-01T13:15:46.160Z,7.20
2018-11-01T13:18:14.624Z,6.83
2018-11-01T13:20:43.425Z,8.87
2018-11-01T13:23:12.949Z,6.87
2018-11-01T13:25:41.491Z,7.97
2018-11-01T13:28:09.986Z,8.57
2018-11-01T13:30:38.960Z,7.80
2018-11-01T13:33:07.452Z,8.67
2018-11-01T13:35:35.994Z,8.80
2018-11-01T13:38:04.395Z,8.23
2018-11-01T13:40:33.455Z,7.60
2018-11-01T13:43:01.782Z,7.33
2018-11-01T13:45:30.660Z,6.53
2018-11-01T13:47:59.195Z,8.37
2018-11-01T13:50:27.735Z,7.60
2018-11-01T13:52:56.126Z,7.53
2018-11-01T13:55:29.877Z,8.57
2018-11-01T13:58:00.357Z,7.90
2018-11-01T14:00:30.843Z,7.70
2018-11-01T14:03:02.017Z,14.07
2018-11-01T14:05:31.870Z,19.30
2018-11-01T14:08:03.847Z,12.77
2018-11-01T14:10:32.883Z,18.07
2018-11-01T14:13:02.716Z,20.20
2018-11-01T14:15:34.558Z,15.00
2018-11-01T14:18:03.084Z,16.70
2018-11-01T14:20:33.505Z,18.77
2018-11-01T14:23:04.303Z,14.60
2018-11-01T14:25:35.001Z,15.90
2018-11-01T14:28:05.385Z,16.80
2018-11-01T14:30:37.637Z,15.60
2018-11-01T14:33:07.880Z,15.77
2018-11-01T14:35:47.534Z,15.10
2018-11-01T14:40:56.287Z,13.90
2018-11-01T14:43:29.810Z,15.10
2018-11-01T14:45:59.246Z,14.70
2018-11-01T14:48:31.010Z,13.63
2018-11-01T14:53:35.338Z,12.30
2018-11-01T14:56:07.122Z,13.70
2018-11-01T14:58:37.847Z,13.60
2018-11-01T15:01:07.365Z,15.93
2018-11-01T15:03:36.933Z,16.23
2018-11-01T15:06:08.126Z,15.43
2018-11-01T15:08:37.986Z,16.10
2018-11-01T15:11:08.403Z,16.70
2018-11-01T15:13:37.304Z,16.50
2018-11-01T15:16:08.579Z,17.40
2018-11-01T15:18:44.819Z,14.27
2018-11-01T15:21:15.870Z,16.37
2018-11-01T15:23:49.571Z,16.60
2018-11-01T15:26:19.681Z,14.80
2018-11-01T15:28:49.903Z,14.47
2018-11-01T15:31:21.271Z,16.57
2018-11-01T15:33:50.438Z,16.57
2018-11-01T15:36:20.652Z,17.27
2018-11-01T15:41:26.580Z,16.83
2018-11-01T15:43:56.378Z,17.37
2018-11-01T15:46:27.594Z,16.73
2018-11-01T15:48:57.901Z,17.33
2018-11-01T15:51:31.807Z,15.17
2018-11-01T15:54:02.478Z,14.00
2018-11-01T15:56:36.605Z,12.50
2018-11-01T15:59:06.723Z,11.80
2018-11-01T16:01:37.738Z,10.67
2018-11-01T16:04:08.835Z,11.20
2018-11-01T16:06:38.782Z,11.87
2018-11-01T16:09:12.647Z,12.53
2018-11-01T16:11:41.617Z,10.60
2018-11-01T16:14:11.196Z,12.13
2018-11-01T16:16:40.991Z,11.03
2018-11-01T16:19:10.912Z,12.97
2018-11-01T16:21:41.122Z,12.30
2018-11-01T16:24:10.981Z,10.97
2018-11-01T16:26:39.577Z,10.70
2018-11-01T16:29:09.125Z,9.77
2018-11-01T16:31:38.356Z,9.70
2018-11-01T16:34:11.061Z,10.00
2018-11-01T16:36:40.046Z,11.30
2018-11-01T16:39:12.935Z,10.40
2018-11-01T16:41:43.479Z,11.47
2018-11-01T16:44:14.680Z,10.53
2018-11-01T16:46:46.223Z,11.50
2018-11-01T16:49:15.146Z,10.67
2018-11-01T16:51:48.958Z,11.80
2018-11-01T16:54:17.671Z,11.67
2018-11-01T16:56:46.885Z,11.33
2018-11-01T16:59:16.603Z,10.93
2018-11-01T17:01:45.559Z,10.20
2018-11-01T17:04:15.000Z,10.67
2018-11-01T17:06:43.802Z,12.20
2018-11-01T17:09:12.656Z,11.20
2018-11-01T17:11:43.781Z,11.60
2018-11-01T17:14:16.644Z,13.00
2018-11-01T17:16:48.183Z,12.70
2018-11-01T17:19:17.901Z,15.87
2018-11-01T17:21:49.128Z,13.70
2018-11-01T17:24:20.007Z,11.40
2018-11-01T17:26:48.676Z,11.83
2018-11-01T17:29:17.576Z,10.80
2018-11-01T17:31:47.962Z,11.70
2018-11-01T17:34:18.700Z,12.10
2018-11-01T17:36:48.040Z,12.10
2018-11-01T17:39:17.637Z,12.10
2018-11-01T17:41:47.429Z,11.60
2018-11-01T17:44:17.466Z,16.37
2018-11-01T17:46:47.227Z,12.83
2018-11-01T17:49:16.400Z,11.27
2018-11-01T17:51:47.369Z,12.70
2018-11-01T17:54:17.917Z,11.53
2018-11-01T17:56:46.512Z,16.90
2018-11-01T17:59:15.685Z,13.27
2018-11-01T18:01:44.967Z,10.90
2018-11-01T18:04:13.719Z,10.70
2018-11-01T18:06:43.539Z,13.77
2018-11-01T18:09:15.897Z,16.17
2018-11-01T18:11:46.046Z,12.40
2018-11-01T18:14:16.473Z,12.50
2018-11-01T18:16:45.664Z,13.27
2018-11-01T18:19:16.372Z,13.07
2018-11-01T18:21:45.451Z,13.23
2018-11-01T18:24:16.588Z,13.30
2018-11-01T18:26:45.735Z,12.10
2018-11-01T18:29:16.470Z,11.90
2018-11-01T18:31:47.211Z,11.33
2018-11-01T18:34:16.330Z,13.73
2018-11-01T18:36:50.689Z,12.80
2018-11-01T18:39:20.338Z,12.40
2018-11-01T18:41:51.305Z,11.93
2018-11-01T18:44:22.392Z,11.50
2018-11-01T18:46:51.649Z,10.60
2018-11-01T18:49:22.137Z,12.40
2018-11-01T18:51:52.922Z,11.50
2018-11-01T18:54:25.072Z,12.33
2018-11-01T18:56:55.126Z,11.30
2018-11-01T18:59:24.256Z,10.57
2018-11-01T19:02:01.704Z,11.20
2018-11-01T19:04:32.737Z,10.03
2018-11-01T19:07:03.176Z,9.53
2018-11-01T19:09:32.639Z,10.30
2018-11-01T19:12:02.057Z,11.60
2018-11-01T19:14:31.806Z,9.83
2018-11-01T19:17:00.876Z,10.83
2018-11-01T19:19:31.152Z,10.00
2018-11-01T19:22:00.509Z,9.30
2018-11-01T19:24:29.539Z,9.30
2018-11-01T19:26:59.256Z,9.00
2018-11-01T19:29:28.583Z,9.17
2018-11-01T19:31:57.623Z,8.70
2018-11-01T19:34:26.955Z,8.03
2018-11-01T19:36:55.945Z,8.63
2018-11-01T19:39:24.886Z,8.43
2018-11-01T19:41:54.897Z,8.43
2018-11-01T19:44:24.334Z,8.40
2018-11-01T19:46:54.656Z,7.37
2018-11-01T19:49:24.835Z,6.83
2018-11-01T19:52:00.686Z,7.00
2018-11-01T19:54:30.651Z,6.27
2018-11-01T19:56:59.486Z,6.33
2018-11-01T19:59:29.022Z,6.17
2018-11-01T20:01:58.721Z,5.30
2018-11-01T20:04:27.947Z,5.13
2018-11-01T20:06:59.967Z,4.97
2018-11-01T20:09:28.750Z,5.07
2018-11-01T20:11:58.821Z,5.67
2018-11-01T20:14:31.985Z,5.97
2018-11-01T20:17:02.943Z,6.27
2018-11-01T20:19:32.277Z,6.27
2018-11-01T20:22:02.296Z,5.83
2018-11-01T20:24:31.815Z,6.30
2018-11-01T20:27:02.315Z,6.90
2018-11-01T20:29:30.895Z,6.67
2018-11-01T20:32:00.538Z,6.30
2018-11-01T20:34:31.034Z,6.87
2018-11-01T20:37:00.905Z,7.07
2018-11-01T20:39:34.988Z,7.00
2018-11-01T20:42:03.703Z,7.00
2018-11-01T20:44:33.497Z,6.90
2018-11-01T20:47:03.172Z,8.80
2018-11-01T20:49:33.902Z,8.50
2018-11-01T20:52:02.543Z,7.17
2018-11-01T20:54:32.446Z,7.60
2018-11-01T20:57:01.408Z,7.13
2018-11-01T20:59:31.235Z,7.70
2018-11-01T21:02:01.237Z,7.37
2018-11-01T21:04:30.246Z,7.77
2018-11-01T21:06:59.882Z,8.00
2018-11-01T21:09:28.413Z,7.67
2018-11-01T21:11:58.056Z,8.10
2018-11-01T21:14:26.789Z,6.50
2018-11-01T21:16:58.223Z,7.77
2018-11-01T21:19:27.962Z,6.70
2018-11-01T21:21:56.510Z,7.20
2018-11-01T21:24:25.117Z,6.53
2018-11-01T21:26:54.319Z,6.60
2018-11-01T21:29:23.291Z,6.67
2018-11-01T21:31:56.365Z,6.80
2018-11-01T21:34:25.952Z,7.00
2018-11-01T21:36:55.663Z,7.03
2018-11-01T21:39:24.646Z,7.33
2018-11-01T21:41:55.391Z,7.00
2018-11-01T21:44:24.250Z,7.77
2018-11-01T21:46:56.838Z,8.27
2018-11-01T21:49:25.453Z,7.80
2018-11-01T21:51:54.917Z,8.13
2018-11-01T21:54:24.616Z,8.80
2018-11-01T21:57:00.171Z,8.07
2018-11-01T21:59:29.410Z,10.10
2018-11-01T22:01:59.109Z,10.30
2018-11-01T22:04:27.772Z,8.70
2018-11-01T22:06:56.624Z,10.10
2018-11-01T22:09:25.369Z,9.40
2018-11-01T22:11:55.218Z,10.20
2018-11-01T22:14:25.338Z,9.00
2018-11-01T22:16:54.806Z,9.97
2018-11-01T22:19:24.547Z,11.70
2018-11-01T22:21:55.409Z,11.80
2018-11-01T22:24:25.296Z,10.07
2018-11-01T22:26:54.999Z,10.23
2018-11-01T22:29:29.984Z,9.33
2018-11-01T22:32:00.690Z,10.87
2018-11-01T22:34:31.967Z,10.13
2018-11-01T22:37:01.267Z,9.67
2018-11-01T22:39:32.010Z,8.97
2018-11-01T22:42:03.146Z,9.50
2018-11-01T22:44:37.461Z,10.20
2018-11-01T22:47:07.959Z,9.60
2018-11-01T22:49:38.392Z,8.90
2018-11-01T22:52:07.920Z,8.60
2018-11-01T22:54:38.463Z,8.63
2018-11-01T22:57:07.315Z,7.47
2018-11-01T22:59:36.483Z,8.00
2018-11-01T23:02:05.885Z,7.87
2018-11-01T23:04:36.663Z,8.73
2018-11-01T23:07:05.732Z,7.90
2018-11-01T23:09:36.298Z,7.97
2018-11-01T23:12:06.815Z,7.67
2018-11-01T23:14:35.427Z,7.03
2018-11-01T23:17:05.018Z,6.50
2018-11-01T23:19:33.813Z,7.43
2018-11-01T23:22:03.114Z,7.00
2018-11-01T23:24:32.737Z,7.60
2018-11-01T23:27:01.945Z,6.80
2018-11-01T23:29:30.816Z,6.83
2018-11-01T23:32:01.954Z,7.73
2018-11-01T23:34:31.258Z,7.63
2018-11-01T23:37:04.230Z,8.40
2018-11-01T23:39:37.335Z,7.03
2018-11-01T23:42:11.181Z,7.20
2018-11-01T23:44:45.807Z,6.80
2018-11-01T23:47:21.356Z,6.73
2018-11-01T23:49:55.322Z,7.17
2018-11-01T23:52:24.032Z,7.07
2018-11-01T23:54:54.244Z,6.20
2018-11-01T23:57:23.283Z,6.77
2018-11-01T23:59:53.211Z,6.43
